THY9TY EHAM-LTFM
Flight info
| Callsign | THY9TY |
|---|---|
| Flight time | N/A |
| Altitude | 37000 |
| Route | EDUPO Z739 MISGO DCT GMH DCT EKSAK DCT SWALM DCT GASKA DCT ENITA DCT ETVIS DCT BUDEX DCT TEKNO DCT OGVUN DCT DUZLA DCT MAVIR DCT TIMUR L606 GASRU DCT RILEX |
| Aircraft | B77W/H-SDE1E2E3FGHIJ2J3J4J5M1RWXY/LB1D1 |
Departure
| Time | 2026-05-07 19:09 |
|---|---|
| Airport | Amsterdam Airport Schiphol (EHAM) |
Arrival
| Time | N/A |
|---|---|
| Airport | İstanbul Airport (LTFM) |
| Time | Latitude | Longitude | Altitude | Speed | Heading |
|---|---|---|---|---|---|
| 2026-05-07 18:36 | 52.31300 | 4.76313 | 4 ft | 0 kts | 253° |
| 2026-05-07 18:53 | 52.31300 | 4.76314 | 4 ft | 2 kts | 253° |
| 2026-05-07 18:54 | 52.31307 | 4.76354 | 5 ft | 4 kts | 254° |
| 2026-05-07 18:54 | 52.31314 | 4.76396 | 6 ft | 4 kts | 253° |
| 2026-05-07 18:54 | 52.31322 | 4.76438 | 5 ft | 4 kts | 253° |
| 2026-05-07 18:54 | 52.31330 | 4.76480 | 5 ft | 4 kts | 249° |
| 2026-05-07 18:55 | 52.31341 | 4.76520 | 6 ft | 4 kts | 236° |
| 2026-05-07 18:55 | 52.31352 | 4.76541 | 7 ft | 2 kts | 214° |
| 2026-05-07 18:55 | 52.31338 | 4.76513 | 6 ft | 4 kts | 241° |
| 2026-05-07 18:55 | 52.31334 | 4.76471 | 6 ft | 4 kts | 274° |
| 2026-05-07 18:56 | 52.31347 | 4.76438 | 4 ft | 4 kts | 316° |
| 2026-05-07 18:56 | 52.31368 | 4.76421 | 4 ft | 2 kts | 342° |
| 2026-05-07 18:56 | 52.31369 | 4.76421 | 4 ft | 2 kts | 342° |
| 2026-05-07 18:59 | 52.31370 | 4.76421 | 4 ft | 0 kts | 342° |
| 2026-05-07 18:59 | 52.31370 | 4.76420 | 4 ft | 0 kts | 342° |
| 2026-05-07 18:59 | 52.31380 | 4.76415 | 4 ft | 6 kts | 342° |
| 2026-05-07 18:59 | 52.31460 | 4.76374 | 4 ft | 15 kts | 342° |
| 2026-05-07 19:00 | 52.31533 | 4.76264 | 4 ft | 15 kts | 287° |
| 2026-05-07 19:00 | 52.31534 | 4.76094 | 4 ft | 15 kts | 266° |
| 2026-05-07 19:00 | 52.31527 | 4.75924 | 4 ft | 15 kts | 266° |
| 2026-05-07 19:00 | 52.31521 | 4.75756 | 4 ft | 15 kts | 266° |
| 2026-05-07 19:01 | 52.31516 | 4.75584 | 4 ft | 16 kts | 267° |
| 2026-05-07 19:01 | 52.31510 | 4.75399 | 4 ft | 16 kts | 267° |
| 2026-05-07 19:01 | 52.31504 | 4.75213 | 4 ft | 16 kts | 267° |
| 2026-05-07 19:01 | 52.31498 | 4.75027 | 4 ft | 16 kts | 266° |
| 2026-05-07 19:02 | 52.31492 | 4.74869 | 4 ft | 9 kts | 266° |
| 2026-05-07 19:02 | 52.31491 | 4.74834 | 4 ft | 1 kts | 266° |
| 2026-05-07 19:02 | 52.31490 | 4.74807 | 4 ft | 8 kts | 266° |
| 2026-05-07 19:02 | 52.31485 | 4.74642 | 4 ft | 14 kts | 267° |
| 2026-05-07 19:03 | 52.31480 | 4.74486 | 4 ft | 14 kts | 267° |
| 2026-05-07 19:03 | 52.31475 | 4.74330 | 4 ft | 14 kts | 267° |
| 2026-05-07 19:03 | 52.31449 | 4.74185 | 4 ft | 14 kts | 228° |
| 2026-05-07 19:03 | 52.31359 | 4.74135 | 4 ft | 14 kts | 186° |
| 2026-05-07 19:04 | 52.31263 | 4.74126 | 4 ft | 14 kts | 183° |
| 2026-05-07 19:04 | 52.31166 | 4.74118 | 4 ft | 14 kts | 183° |
| 2026-05-07 19:04 | 52.31070 | 4.74109 | 4 ft | 14 kts | 183° |
| 2026-05-07 19:04 | 52.30973 | 4.74100 | 4 ft | 14 kts | 183° |
| 2026-05-07 19:05 | 52.30877 | 4.74093 | 4 ft | 14 kts | 182° |
| 2026-05-07 19:05 | 52.30783 | 4.74084 | 4 ft | 14 kts | 183° |
| 2026-05-07 19:05 | 52.30686 | 4.74075 | 4 ft | 14 kts | 183° |
| 2026-05-07 19:05 | 52.30590 | 4.74066 | 4 ft | 14 kts | 183° |
| 2026-05-07 19:06 | 52.30494 | 4.74058 | 4 ft | 14 kts | 183° |
| 2026-05-07 19:06 | 52.30347 | 4.74049 | 4 ft | 10 kts | 194° |
| 2026-05-07 19:06 | 52.30324 | 4.74031 | 4 ft | 0 kts | 209° |
| 2026-05-07 19:07 | 52.30320 | 4.74028 | 4 ft | 0 kts | 209° |
| 2026-05-07 19:07 | 52.30319 | 4.74027 | 4 ft | 1 kts | 209° |
| 2026-05-07 19:08 | 52.30258 | 4.73964 | 4 ft | 17 kts | 214° |
| 2026-05-07 19:08 | 52.30198 | 4.73880 | 3 ft | 10 kts | 233° |
| 2026-05-07 19:08 | 52.30201 | 4.73768 | 3 ft | 11 kts | 313° |
| 2026-05-07 19:08 | 52.30280 | 4.73741 | 1 ft | 13 kts | 2° |
| 2026-05-07 19:09 | 52.30486 | 4.73764 | 2 ft | 62 kts | 4° |
| 2026-05-07 19:09 | 52.31199 | 4.73831 | 3 ft | 140 kts | 3° |
| 2026-05-07 19:09 | 52.32362 | 4.73933 | 181 ft | 182 kts | 4° |
| 2026-05-07 19:09 | 52.33616 | 4.74046 | 1001 ft | 179 kts | 8° |
| 2026-05-07 19:10 | 52.34816 | 4.74599 | 1670 ft | 186 kts | 27° |
| 2026-05-07 19:10 | 52.36032 | 4.75636 | 2002 ft | 211 kts | 30° |
| 2026-05-07 19:10 | 52.37434 | 4.76817 | 2243 ft | 240 kts | 28° |
| 2026-05-07 19:10 | 52.38913 | 4.78234 | 2810 ft | 251 kts | 43° |
| 2026-05-07 19:11 | 52.40058 | 4.80397 | 3516 ft | 255 kts | 53° |
| 2026-05-07 19:11 | 52.41238 | 4.82648 | 4310 ft | 263 kts | 49° |
| 2026-05-07 19:11 | 52.42317 | 4.85048 | 4999 ft | 265 kts | 69° |
| 2026-05-07 19:11 | 52.42543 | 4.88037 | 5695 ft | 267 kts | 98° |
| 2026-05-07 19:12 | 52.42362 | 4.91091 | 6358 ft | 275 kts | 93° |
| 2026-05-07 19:12 | 52.42354 | 4.94230 | 7243 ft | 277 kts | 91° |
| 2026-05-07 19:12 | 52.42313 | 4.97376 | 8042 ft | 277 kts | 101° |
| 2026-05-07 19:12 | 52.41523 | 5.00226 | 8635 ft | 281 kts | 134° |
| 2026-05-07 19:13 | 52.39926 | 5.02029 | 9400 ft | 279 kts | 152° |
| 2026-05-07 19:13 | 52.38232 | 5.03696 | 10003 ft | 289 kts | 147° |
| 2026-05-07 19:13 | 52.36559 | 5.05612 | 10607 ft | 302 kts | 146° |
| 2026-05-07 19:13 | 52.34766 | 5.07701 | 10823 ft | 330 kts | 146° |
| 2026-05-07 19:14 | 52.32862 | 5.10029 | 11010 ft | 353 kts | 140° |
| 2026-05-07 19:14 | 52.31116 | 5.13031 | 11488 ft | 371 kts | 131° |
| 2026-05-07 19:14 | 52.29469 | 5.16281 | 12314 ft | 381 kts | 130° |
| 2026-05-07 19:14 | 52.27759 | 5.19573 | 13323 ft | 387 kts | 132° |
| 2026-05-07 19:15 | 52.25941 | 5.22930 | 14345 ft | 392 kts | 133° |
| 2026-05-07 19:15 | 52.24110 | 5.26268 | 15311 ft | 397 kts | 132° |
| 2026-05-07 19:15 | 52.22406 | 5.29777 | 16247 ft | 403 kts | 127° |
| 2026-05-07 19:15 | 52.20799 | 5.33544 | 17229 ft | 408 kts | 125° |
| 2026-05-07 19:16 | 52.19202 | 5.37406 | 18160 ft | 413 kts | 125° |
| 2026-05-07 19:16 | 52.17575 | 5.41301 | 18993 ft | 418 kts | 125° |
| 2026-05-07 19:16 | 52.15911 | 5.45212 | 19803 ft | 423 kts | 126° |
| 2026-05-07 19:16 | 52.14201 | 5.49172 | 20526 ft | 430 kts | 126° |
| 2026-05-07 19:17 | 52.12461 | 5.53164 | 21287 ft | 436 kts | 127° |
| 2026-05-07 19:17 | 52.10692 | 5.57204 | 22065 ft | 440 kts | 127° |
| 2026-05-07 19:17 | 52.08906 | 5.61278 | 22833 ft | 445 kts | 127° |
| 2026-05-07 19:17 | 52.07095 | 5.65400 | 23565 ft | 450 kts | 127° |
| 2026-05-07 19:18 | 52.05242 | 5.69537 | 24171 ft | 455 kts | 129° |
| 2026-05-07 19:18 | 52.03358 | 5.73662 | 24672 ft | 459 kts | 124° |
| 2026-05-07 19:18 | 52.01764 | 5.78187 | 25221 ft | 465 kts | 118° |
| 2026-05-07 19:18 | 52.00297 | 5.82882 | 25870 ft | 467 kts | 118° |
| 2026-05-07 19:19 | 51.98796 | 5.87579 | 26504 ft | 470 kts | 119° |
| 2026-05-07 19:19 | 51.97257 | 5.92274 | 27071 ft | 474 kts | 120° |
| 2026-05-07 19:19 | 51.95679 | 5.96996 | 27605 ft | 478 kts | 120° |
| 2026-05-07 19:19 | 51.94072 | 6.01744 | 28117 ft | 482 kts | 120° |
| 2026-05-07 19:20 | 51.92448 | 6.06510 | 28655 ft | 485 kts | 120° |
| 2026-05-07 19:20 | 51.90810 | 6.11300 | 29145 ft | 488 kts | 121° |
| 2026-05-07 19:20 | 51.89157 | 6.16122 | 29607 ft | 491 kts | 121° |
| 2026-05-07 19:20 | 51.87495 | 6.20965 | 30033 ft | 494 kts | 121° |
| 2026-05-07 19:21 | 51.85823 | 6.25833 | 30518 ft | 494 kts | 121° |
| 2026-05-07 19:21 | 51.84157 | 6.30679 | 31075 ft | 492 kts | 121° |
| 2026-05-07 19:21 | 51.82516 | 6.35444 | 31631 ft | 489 kts | 121° |
| 2026-05-07 19:21 | 51.80860 | 6.40242 | 32171 ft | 487 kts | 121° |
| 2026-05-07 19:22 | 51.79213 | 6.45008 | 32673 ft | 486 kts | 121° |
| 2026-05-07 19:22 | 51.77561 | 6.49775 | 33152 ft | 486 kts | 121° |
| 2026-05-07 19:22 | 51.75914 | 6.54519 | 33657 ft | 484 kts | 121° |
| 2026-05-07 19:22 | 51.74267 | 6.59256 | 34142 ft | 483 kts | 121° |
| 2026-05-07 19:23 | 51.72624 | 6.63972 | 34511 ft | 483 kts | 121° |
| 2026-05-07 19:23 | 51.70974 | 6.68697 | 34814 ft | 484 kts | 121° |
| 2026-05-07 19:23 | 51.69349 | 6.73341 | 35111 ft | 485 kts | 121° |
| 2026-05-07 19:23 | 51.67691 | 6.78072 | 35430 ft | 485 kts | 121° |
| 2026-05-07 19:24 | 51.66033 | 6.82795 | 35758 ft | 485 kts | 121° |
| 2026-05-07 19:24 | 51.64368 | 6.87531 | 36056 ft | 486 kts | 121° |
| 2026-05-07 19:24 | 51.62698 | 6.92269 | 36362 ft | 487 kts | 121° |
| 2026-05-07 19:24 | 51.61049 | 6.96942 | 36651 ft | 487 kts | 121° |
| 2026-05-07 19:25 | 51.59375 | 7.01675 | 36915 ft | 488 kts | 121° |
| 2026-05-07 19:25 | 51.57684 | 7.06446 | 37018 ft | 492 kts | 121° |
| 2026-05-07 19:25 | 51.54276 | 7.16033 | 37085 ft | 493 kts | 121° |
| 2026-05-07 19:26 | 51.50892 | 7.25524 | 37077 ft | 487 kts | 121° |
| 2026-05-07 19:26 | 51.47514 | 7.34960 | 37093 ft | 487 kts | 121° |
| 2026-05-07 19:27 | 51.44126 | 7.44386 | 37096 ft | 488 kts | 121° |
| 2026-05-07 19:27 | 51.40728 | 7.53806 | 37105 ft | 489 kts | 122° |
| 2026-05-07 19:28 | 51.37314 | 7.63236 | 37103 ft | 490 kts | 122° |
| 2026-05-07 19:28 | 51.33886 | 7.72669 | 37098 ft | 491 kts | 121° |
| 2026-05-07 19:29 | 51.30447 | 7.82099 | 37089 ft | 492 kts | 122° |
| 2026-05-07 19:29 | 51.26981 | 7.91567 | 37109 ft | 499 kts | 122° |
| 2026-05-07 19:30 | 51.23466 | 8.01132 | 37096 ft | 501 kts | 122° |
| 2026-05-07 19:30 | 51.19929 | 8.10723 | 37093 ft | 502 kts | 121° |
| 2026-05-07 19:31 | 51.16386 | 8.20294 | 37094 ft | 501 kts | 122° |
| 2026-05-07 19:31 | 51.12841 | 8.29837 | 37098 ft | 500 kts | 122° |
| 2026-05-07 19:32 | 51.09295 | 8.39345 | 37096 ft | 499 kts | 122° |
| 2026-05-07 19:32 | 51.05772 | 8.48760 | 37100 ft | 498 kts | 122° |
| 2026-05-07 19:33 | 51.02223 | 8.58196 | 37093 ft | 497 kts | 122° |
| 2026-05-07 19:33 | 50.98168 | 8.67128 | 37098 ft | 495 kts | 130° |
| 2026-05-07 19:34 | 50.93880 | 8.75683 | 37100 ft | 496 kts | 129° |
| 2026-05-07 19:34 | 50.89621 | 8.84298 | 37100 ft | 497 kts | 129° |
| 2026-05-07 19:35 | 50.85399 | 8.92896 | 37096 ft | 498 kts | 129° |
| 2026-05-07 19:35 | 50.81145 | 9.01537 | 37096 ft | 498 kts | 129° |
| 2026-05-07 19:36 | 50.76879 | 9.10167 | 37096 ft | 499 kts | 129° |
| 2026-05-07 19:36 | 50.72610 | 9.18817 | 37092 ft | 499 kts | 127° |
| 2026-05-07 19:37 | 50.69062 | 9.28178 | 37093 ft | 500 kts | 118° |
| 2026-05-07 19:37 | 50.66439 | 9.36261 | 37094 ft | 500 kts | 118° |
| 2026-05-07 19:38 | 50.63195 | 9.46009 | 37087 ft | 500 kts | 119° |
| 2026-05-07 19:38 | 50.59934 | 9.55681 | 37095 ft | 500 kts | 119° |
| 2026-05-07 19:39 | 50.56648 | 9.65380 | 37087 ft | 501 kts | 119° |
| 2026-05-07 19:39 | 50.53379 | 9.75004 | 37092 ft | 501 kts | 119° |
| 2026-05-07 19:40 | 50.50094 | 9.84642 | 37090 ft | 500 kts | 119° |
| 2026-05-07 19:40 | 50.46803 | 9.94263 | 37098 ft | 500 kts | 119° |
| 2026-05-07 19:41 | 50.43498 | 10.03886 | 37079 ft | 501 kts | 120° |
| 2026-05-07 19:41 | 50.40186 | 10.13495 | 37087 ft | 501 kts | 120° |
| 2026-05-07 19:42 | 50.36891 | 10.23026 | 37082 ft | 501 kts | 120° |
| 2026-05-07 19:42 | 50.33700 | 10.32716 | 37077 ft | 502 kts | 116° |
| 2026-05-07 19:43 | 50.30881 | 10.42714 | 37081 ft | 502 kts | 114° |
| 2026-05-07 19:43 | 50.28102 | 10.52741 | 37082 ft | 502 kts | 115° |
| 2026-05-07 19:44 | 50.25274 | 10.62733 | 37072 ft | 503 kts | 115° |
| 2026-05-07 19:44 | 50.22412 | 10.72695 | 37072 ft | 503 kts | 115° |
| 2026-05-07 19:45 | 50.19533 | 10.82647 | 37070 ft | 503 kts | 115° |
| 2026-05-07 19:45 | 50.16649 | 10.92582 | 37065 ft | 503 kts | 115° |
| 2026-05-07 19:46 | 50.13757 | 11.02516 | 37061 ft | 503 kts | 115° |
| 2026-05-07 19:46 | 50.10856 | 11.12439 | 37046 ft | 503 kts | 116° |
| 2026-05-07 19:47 | 50.07948 | 11.22344 | 37057 ft | 503 kts | 116° |
| 2026-05-07 19:47 | 50.05030 | 11.32240 | 37070 ft | 503 kts | 116° |
| 2026-05-07 19:48 | 50.02101 | 11.42136 | 37070 ft | 503 kts | 116° |
| 2026-05-07 19:48 | 49.99164 | 11.52020 | 37066 ft | 504 kts | 116° |
| 2026-05-07 19:49 | 49.96215 | 11.61901 | 37046 ft | 504 kts | 116° |
| 2026-05-07 19:49 | 49.93277 | 11.71706 | 37065 ft | 505 kts | 116° |
| 2026-05-07 19:50 | 49.90316 | 11.81548 | 37044 ft | 505 kts | 116° |
| 2026-05-07 19:50 | 49.87339 | 11.91404 | 37034 ft | 505 kts | 116° |
| 2026-05-07 19:51 | 49.84353 | 12.01251 | 37035 ft | 505 kts | 116° |
| 2026-05-07 19:51 | 49.81358 | 12.11088 | 37035 ft | 505 kts | 117° |
| 2026-05-07 19:52 | 49.78356 | 12.20908 | 37055 ft | 505 kts | 117° |
| 2026-05-07 19:52 | 49.75348 | 12.30710 | 37041 ft | 505 kts | 117° |
| 2026-05-07 19:53 | 49.72326 | 12.40523 | 37054 ft | 505 kts | 117° |
| 2026-05-07 19:53 | 49.69718 | 12.50598 | 37058 ft | 507 kts | 107° |